sensor_id;sensor_type;location;lat;lon;timestamp;pressure;altitude;pressure_sealevel;temperature;humidity
71424;BME280;59240;51.370;-0.486;2022-07-24T00:02:24;101586.44;;;19.06;64.59
71424;BME280;59240;51.370;-0.486;2022-07-24T00:04:52;101561.50;;;18.93;64.45
71424;BME280;59240;51.370;-0.486;2022-07-24T00:07:23;101553.06;;;18.85;64.51
71424;BME280;59240;51.370;-0.486;2022-07-24T00:09:50;101591.84;;;19.03;64.65
71424;BME280;59240;51.370;-0.486;2022-07-24T00:12:17;101590.34;;;18.98;64.98
71424;BME280;59240;51.370;-0.486;2022-07-24T00:14:44;101575.88;;;18.86;64.67
71424;BME280;59240;51.370;-0.486;2022-07-24T00:17:11;101583.69;;;18.89;65.34
71424;BME280;59240;51.370;-0.486;2022-07-24T00:19:38;101569.03;;;18.82;65.45
71424;BME280;59240;51.370;-0.486;2022-07-24T00:22:04;101592.47;;;18.90;65.45
71424;BME280;59240;51.370;-0.486;2022-07-24T00:24:31;101588.16;;;18.87;65.66
71424;BME280;59240;51.370;-0.486;2022-07-24T00:26:58;101566.00;;;18.71;65.33
71424;BME280;59240;51.370;-0.486;2022-07-24T00:29:27;101574.44;;;18.79;65.97
71424;BME280;59240;51.370;-0.486;2022-07-24T00:31:54;101542.56;;;18.63;65.82
71424;BME280;59240;51.370;-0.486;2022-07-24T00:34:21;101562.59;;;18.69;65.72
71424;BME280;59240;51.370;-0.486;2022-07-24T00:36:47;101562.16;;;18.78;66.11
71424;BME280;59240;51.370;-0.486;2022-07-24T00:39:14;101574.19;;;18.85;65.48
71424;BME280;59240;51.370;-0.486;2022-07-24T00:41:41;101548.47;;;18.70;66.18
71424;BME280;59240;51.370;-0.486;2022-07-24T00:44:12;101576.75;;;18.86;66.25
71424;BME280;59240;51.370;-0.486;2022-07-24T00:46:41;101581.06;;;18.89;66.12
71424;BME280;59240;51.370;-0.486;2022-07-24T00:49:11;101572.47;;;18.84;66.15
71424;BME280;59240;51.370;-0.486;2022-07-24T00:51:45;101586.34;;;18.89;65.64
71424;BME280;59240;51.370;-0.486;2022-07-24T00:54:14;101579.19;;;18.91;65.59
71424;BME280;59240;51.370;-0.486;2022-07-24T00:56:42;101564.47;;;18.85;66.32
71424;BME280;59240;51.370;-0.486;2022-07-24T00:59:11;101576.34;;;18.96;66.22
71424;BME280;59240;51.370;-0.486;2022-07-24T01:01:38;101568.63;;;18.91;66.37
71424;BME280;59240;51.370;-0.486;2022-07-24T01:04:06;101573.91;;;18.91;66.02
71424;BME280;59240;51.370;-0.486;2022-07-24T01:06:35;101548.13;;;18.77;65.95
71424;BME280;59240;51.370;-0.486;2022-07-24T01:09:02;101532.63;;;18.70;65.48
71424;BME280;59240;51.370;-0.486;2022-07-24T01:11:29;101560.19;;;18.83;65.62
71424;BME280;59240;51.370;-0.486;2022-07-24T01:13:56;101547.41;;;18.74;66.39
71424;BME280;59240;51.370;-0.486;2022-07-24T01:16:23;101533.00;;;18.61;65.74
71424;BME280;59240;51.370;-0.486;2022-07-24T01:18:50;101552.72;;;18.72;66.52
71424;BME280;59240;51.370;-0.486;2022-07-24T01:21:17;101523.41;;;18.58;66.12
71424;BME280;59240;51.370;-0.486;2022-07-24T01:23:45;101558.75;;;18.76;65.79
71424;BME280;59240;51.370;-0.486;2022-07-24T01:26:12;101550.31;;;18.68;66.34
71424;BME280;59240;51.370;-0.486;2022-07-24T01:28:38;101535.63;;;18.61;66.16
71424;BME280;59240;51.370;-0.486;2022-07-24T01:31:05;101546.81;;;18.67;66.39
71424;BME280;59240;51.370;-0.486;2022-07-24T01:33:32;101534.13;;;18.55;66.19
71424;BME280;59240;51.370;-0.486;2022-07-24T01:35:58;101512.53;;;18.45;66.38
71424;BME280;59240;51.370;-0.486;2022-07-24T01:38:25;101551.94;;;18.70;66.37
71424;BME280;59240;51.370;-0.486;2022-07-24T01:40:52;101538.13;;;18.64;66.21
71424;BME280;59240;51.370;-0.486;2022-07-24T01:43:18;101524.28;;;18.58;66.30
71424;BME280;59240;51.370;-0.486;2022-07-24T01:45:45;101545.97;;;18.65;66.06
71424;BME280;59240;51.370;-0.486;2022-07-24T01:48:12;101521.25;;;18.47;66.09
71424;BME280;59240;51.370;-0.486;2022-07-24T01:50:39;101504.91;;;18.39;66.28
71424;BME280;59240;51.370;-0.486;2022-07-24T01:53:06;101527.06;;;18.55;66.54
71424;BME280;59240;51.370;-0.486;2022-07-24T01:55:33;101537.47;;;18.58;66.31
71424;BME280;59240;51.370;-0.486;2022-07-24T01:58:00;101536.84;;;18.53;66.66
71424;BME280;59240;51.370;-0.486;2022-07-24T02:00:27;101516.09;;;18.44;67.11
71424;BME280;59240;51.370;-0.486;2022-07-24T02:02:54;101543.66;;;18.57;66.93
71424;BME280;59240;51.370;-0.486;2022-07-24T02:05:20;101511.66;;;18.45;67.08
71424;BME280;59240;51.370;-0.486;2022-07-24T02:07:57;101521.97;;;18.51;66.93
71424;BME280;59240;51.370;-0.486;2022-07-24T02:10:25;101530.22;;;18.64;67.04
71424;BME280;59240;51.370;-0.486;2022-07-24T02:12:52;101515.56;;;18.56;67.21
71424;BME280;59240;51.370;-0.486;2022-07-24T02:15:19;101528.34;;;18.66;66.75
71424;BME280;59240;51.370;-0.486;2022-07-24T02:17:50;101529.19;;;18.68;66.98
71424;BME280;59240;51.370;-0.486;2022-07-24T02:20:17;101533.47;;;18.70;67.26
71424;BME280;59240;51.370;-0.486;2022-07-24T02:22:44;101515.56;;;18.56;67.10
71424;BME280;59240;51.370;-0.486;2022-07-24T02:25:12;101529.28;;;18.65;67.28
71424;BME280;59240;51.370;-0.486;2022-07-24T02:27:39;101530.13;;;18.67;66.76
71424;BME280;59240;51.370;-0.486;2022-07-24T02:30:09;101541.47;;;18.69;67.45
71424;BME280;59240;51.370;-0.486;2022-07-24T02:32:37;101482.88;;;18.40;67.29
71424;BME280;59240;51.370;-0.486;2022-07-24T02:35:04;101543.19;;;18.70;66.81
71424;BME280;59240;51.370;-0.486;2022-07-24T02:37:36;101532.47;;;18.73;66.93
71424;BME280;59240;51.370;-0.486;2022-07-24T02:40:04;101491.41;;;18.45;66.70
71424;BME280;59240;51.370;-0.486;2022-07-24T02:42:31;101512.78;;;18.59;66.71
71424;BME280;59240;51.370;-0.486;2022-07-24T02:44:58;101514.66;;;18.57;66.64
71424;BME280;59240;51.370;-0.486;2022-07-24T02:47:25;101541.31;;;18.72;67.03
71424;BME280;59240;51.370;-0.486;2022-07-24T02:49:51;101521.44;;;18.63;66.91
71424;BME280;59240;51.370;-0.486;2022-07-24T02:52:18;101519.00;;;18.58;66.33
71424;BME280;59240;51.370;-0.486;2022-07-24T02:54:45;101522.22;;;18.67;66.37
71424;BME280;59240;51.370;-0.486;2022-07-24T02:57:11;101497.28;;;18.52;66.55
71424;BME280;59240;51.370;-0.486;2022-07-24T02:59:38;101528.34;;;18.66;66.11
71424;BME280;59240;51.370;-0.486;2022-07-24T03:02:04;101523.06;;;18.67;66.49
71424;BME280;59240;51.370;-0.486;2022-07-24T03:04:32;101499.88;;;18.53;66.41
71424;BME280;59240;51.370;-0.486;2022-07-24T03:06:59;101482.88;;;18.40;66.48
71424;BME280;59240;51.370;-0.486;2022-07-24T03:09:25;101513.59;;;18.62;66.40
71424;BME280;59240;51.370;-0.486;2022-07-24T03:11:52;101524.00;;;18.65;66.78
71424;BME280;59240;51.370;-0.486;2022-07-24T03:14:19;101527.56;;;18.64;66.16
71424;BME280;59240;51.370;-0.486;2022-07-24T03:16:45;101530.22;;;18.64;66.66
71424;BME280;59240;51.370;-0.486;2022-07-24T03:19:12;101522.44;;;18.61;65.85
71424;BME280;59240;51.370;-0.486;2022-07-24T03:21:39;101502.84;;;18.46;65.71
71424;BME280;59240;51.370;-0.486;2022-07-24T03:24:14;101516.03;;;18.46;66.27
71424;BME280;59240;51.370;-0.486;2022-07-24T03:26:41;101496.66;;;18.26;66.21
71424;BME280;59240;51.370;-0.486;2022-07-24T03:29:08;101531.81;;;18.47;66.35
71424;BME280;59240;51.370;-0.486;2022-07-24T03:31:35;101502.91;;;18.24;66.69
71424;BME280;59240;51.370;-0.486;2022-07-24T03:34:01;101535.63;;;18.40;66.05
71424;BME280;59240;51.370;-0.486;2022-07-24T03:36:28;101519.25;;;18.32;66.58
71424;BME280;59240;51.370;-0.486;2022-07-24T03:38:55;101515.13;;;18.26;66.44
71424;BME280;59240;51.370;-0.486;2022-07-24T03:41:21;101508.31;;;18.21;66.31
71424;BME280;59240;51.370;-0.486;2022-07-24T03:43:49;101486.03;;;18.08;66.96
71424;BME280;59240;51.370;-0.486;2022-07-24T03:46:16;101511.75;;;18.23;66.45
71424;BME280;59240;51.370;-0.486;2022-07-24T03:48:43;101506.72;;;18.17;66.56
71424;BME280;59240;51.370;-0.486;2022-07-24T03:51:09;101510.28;;;18.16;67.34
71424;BME280;59240;51.370;-0.486;2022-07-24T03:53:37;101505.34;;;18.08;67.20
71424;BME280;59240;51.370;-0.486;2022-07-24T03:56:08;101542.59;;;18.21;67.08
71424;BME280;59240;51.370;-0.486;2022-07-24T03:58:35;101496.75;;;18.03;66.52
71424;BME280;59240;51.370;-0.486;2022-07-24T04:01:05;101522.69;;;18.14;67.05
71424;BME280;59240;51.370;-0.486;2022-07-24T04:03:32;101486.66;;;17.92;66.71
71424;BME280;59240;51.370;-0.486;2022-07-24T04:06:05;101498.53;;;18.02;67.51
71424;BME280;59240;51.370;-0.486;2022-07-24T04:08:33;101506.97;;;18.11;67.66
71424;BME280;59240;51.370;-0.486;2022-07-24T04:10:59;101487.38;;;17.96;66.53
71424;BME280;59240;51.370;-0.486;2022-07-24T04:13:30;101517.41;;;18.14;66.67
71424;BME280;59240;51.370;-0.486;2022-07-24T04:15:57;101499.59;;;17.98;67.37
71424;BME280;59240;51.370;-0.486;2022-07-24T04:18:25;101496.97;;;17.98;66.89
71424;BME280;59240;51.370;-0.486;2022-07-24T04:20:52;101476.13;;;17.92;67.10
71424;BME280;59240;51.370;-0.486;2022-07-24T04:23:18;101490.69;;;18.01;67.13
71424;BME280;59240;51.370;-0.486;2022-07-24T04:25:47;101457.00;;;17.87;67.40
71424;BME280;59240;51.370;-0.486;2022-07-24T04:28:13;101499.88;;;18.13;67.11
71424;BME280;59240;51.370;-0.486;2022-07-24T04:30:40;101464.66;;;17.93;67.15
71424;BME280;59240;51.370;-0.486;2022-07-24T04:33:07;101509.25;;;18.20;67.00
71424;BME280;59240;51.370;-0.486;2022-07-24T04:35:33;101500.59;;;18.16;67.14
71424;BME280;59240;51.370;-0.486;2022-07-24T04:38:00;101473.03;;;18.03;67.08
71424;BME280;59240;51.370;-0.486;2022-07-24T04:40:27;101477.19;;;18.09;67.04
71424;BME280;59240;51.370;-0.486;2022-07-24T04:42:53;101476.25;;;18.10;67.30
71424;BME280;59240;51.370;-0.486;2022-07-24T04:45:20;101493.47;;;18.18;67.06
71424;BME280;59240;51.370;-0.486;2022-07-24T04:47:47;101483.31;;;18.09;66.78
71424;BME280;59240;51.370;-0.486;2022-07-24T04:50:14;101509.09;;;18.23;66.53
71424;BME280;59240;51.370;-0.486;2022-07-24T04:52:41;101499.03;;;18.12;67.22
71424;BME280;59240;51.370;-0.486;2022-07-24T04:55:08;101515.16;;;18.25;67.34
71424;BME280;59240;51.370;-0.486;2022-07-24T04:57:35;101483.38;;;18.08;66.97
71424;BME280;59240;51.370;-0.486;2022-07-24T05:00:04;101504.59;;;18.25;67.17
71424;BME280;59240;51.370;-0.486;2022-07-24T05:02:32;101502.91;;;18.24;67.24
71424;BME280;59240;51.370;-0.486;2022-07-24T05:04:58;101495.91;;;18.23;67.06
71424;BME280;59240;51.370;-0.486;2022-07-24T05:07:25;101488.84;;;18.23;67.02
71424;BME280;59240;51.370;-0.486;2022-07-24T05:09:52;101503.72;;;18.26;67.24
71424;BME280;59240;51.370;-0.486;2022-07-24T05:12:18;101477.03;;;18.12;67.53
71424;BME280;59240;51.370;-0.486;2022-07-24T05:14:45;101457.34;;;18.00;66.71
71424;BME280;59240;51.370;-0.486;2022-07-24T05:17:12;101506.22;;;18.29;67.34
71424;BME280;59240;51.370;-0.486;2022-07-24T05:19:38;101483.50;;;18.25;67.15
71424;BME280;59240;51.370;-0.486;2022-07-24T05:22:05;101481.69;;;18.27;67.39
71424;BME280;59240;51.370;-0.486;2022-07-24T05:24:32;101488.19;;;18.39;67.32
71424;BME280;59240;51.370;-0.486;2022-07-24T05:26:59;101469.78;;;18.37;67.15
71424;BME280;59240;51.370;-0.486;2022-07-24T05:29:25;101480.75;;;18.69;66.62
71424;BME280;59240;51.370;-0.486;2022-07-24T05:31:52;101468.19;;;18.94;65.75
71424;BME280;59240;51.370;-0.486;2022-07-24T05:34:22;101481.53;;;19.29;65.10
71424;BME280;59240;51.370;-0.486;2022-07-24T05:36:49;101455.31;;;19.43;64.31
71424;BME280;59240;51.370;-0.486;2022-07-24T05:39:16;101466.91;;;19.77;63.42
71424;BME280;59240;51.370;-0.486;2022-07-24T05:41:43;101449.63;;;19.87;62.61
71424;BME280;59240;51.370;-0.486;2022-07-24T05:44:09;101476.25;;;20.18;62.65
71424;BME280;59240;51.370;-0.486;2022-07-24T05:46:36;101475.06;;;20.24;62.37
71424;BME280;59240;51.370;-0.486;2022-07-24T05:49:03;101437.84;;;20.11;62.03
71424;BME280;59240;51.370;-0.486;2022-07-24T05:51:30;101449.16;;;20.31;61.78
71424;BME280;59240;51.370;-0.486;2022-07-24T05:53:57;101467.47;;;20.53;61.44
71424;BME280;59240;51.370;-0.486;2022-07-24T05:56:24;101461.69;;;20.62;61.20
71424;BME280;59240;51.370;-0.486;2022-07-24T05:58:51;101460.31;;;20.70;60.90
71424;BME280;59240;51.370;-0.486;2022-07-24T06:01:17;101462.66;;;20.76;60.65
71424;BME280;59240;51.370;-0.486;2022-07-24T06:03:44;101462.31;;;20.83;60.64
71424;BME280;59240;51.370;-0.486;2022-07-24T06:06:12;101463.09;;;20.85;60.58
71424;BME280;59240;51.370;-0.486;2022-07-24T06:08:39;101476.00;;;20.91;60.61
71424;BME280;59240;51.370;-0.486;2022-07-24T06:11:05;101453.66;;;20.79;60.37
71424;BME280;59240;51.370;-0.486;2022-07-24T06:13:32;101453.94;;;20.74;60.76
71424;BME280;59240;51.370;-0.486;2022-07-24T06:15:59;101450.91;;;20.65;60.61
71424;BME280;59240;51.370;-0.486;2022-07-24T06:18:26;101473.88;;;20.64;60.36
71424;BME280;59240;51.370;-0.486;2022-07-24T06:20:53;101452.66;;;20.48;60.62
71424;BME280;59240;51.370;-0.486;2022-07-24T06:23:20;101454.47;;;20.48;60.81
71424;BME280;59240;51.370;-0.486;2022-07-24T06:25:48;101457.47;;;20.58;60.92
71424;BME280;59240;51.370;-0.486;2022-07-24T06:28:15;101466.38;;;20.72;60.71
71424;BME280;59240;51.370;-0.486;2022-07-24T06:30:41;101455.78;;;20.72;60.82
71424;BME280;59240;51.370;-0.486;2022-07-24T06:33:08;101455.22;;;20.83;60.50
71424;BME280;59240;51.370;-0.486;2022-07-24T06:35:35;101452.91;;;20.93;60.10
71424;BME280;59240;51.370;-0.486;2022-07-24T06:38:02;101447.47;;;20.96;59.83
71424;BME280;59240;51.370;-0.486;2022-07-24T06:40:28;101434.38;;;20.93;59.90
71424;BME280;59240;51.370;-0.486;2022-07-24T06:42:55;101445.88;;;21.09;59.44
71424;BME280;59240;51.370;-0.486;2022-07-24T06:45:22;101438.59;;;21.13;59.27
71424;BME280;59240;51.370;-0.486;2022-07-24T06:47:49;101424.56;;;21.11;59.40
71424;BME280;59240;51.370;-0.486;2022-07-24T06:50:16;101458.13;;;21.43;58.67
71424;BME280;59240;51.370;-0.486;2022-07-24T06:52:43;101439.28;;;21.48;58.50
71424;BME280;59240;51.370;-0.486;2022-07-24T06:55:11;101437.22;;;21.53;58.50
71424;BME280;59240;51.370;-0.486;2022-07-24T06:57:38;101430.72;;;21.58;58.37
71424;BME280;59240;51.370;-0.486;2022-07-24T07:00:10;101437.88;;;21.72;57.56
71424;BME280;59240;51.370;-0.486;2022-07-24T07:02:38;101421.78;;;21.75;57.60
71424;BME280;59240;51.370;-0.486;2022-07-24T07:05:06;101449.91;;;22.08;57.46
71424;BME280;59240;51.370;-0.486;2022-07-24T07:07:35;101452.94;;;22.32;57.32
71424;BME280;59240;51.370;-0.486;2022-07-24T07:10:02;101451.91;;;22.49;56.58
71424;BME280;59240;51.370;-0.486;2022-07-24T07:12:29;101417.00;;;22.41;56.32
71424;BME280;59240;51.370;-0.486;2022-07-24T07:15:00;101423.47;;;22.65;55.80
71424;BME280;59240;51.370;-0.486;2022-07-24T07:17:27;101443.41;;;22.86;55.35
71424;BME280;59240;51.370;-0.486;2022-07-24T07:19:53;101434.50;;;22.87;54.95
71424;BME280;59240;51.370;-0.486;2022-07-24T07:22:20;101420.81;;;22.79;54.50
71424;BME280;59240;51.370;-0.486;2022-07-24T07:24:47;101424.44;;;22.92;54.38
71424;BME280;59240;51.370;-0.486;2022-07-24T07:27:13;101432.94;;;22.98;53.80
71424;BME280;59240;51.370;-0.486;2022-07-24T07:29:40;101415.84;;;23.02;54.03
71424;BME280;59240;51.370;-0.486;2022-07-24T07:32:07;101392.91;;;23.01;54.13
71424;BME280;59240;51.370;-0.486;2022-07-24T07:34:33;101409.38;;;23.20;53.19
71424;BME280;59240;51.370;-0.486;2022-07-24T07:37:00;101403.56;;;23.28;52.95
71424;BME280;59240;51.370;-0.486;2022-07-24T07:39:27;101410.25;;;23.33;52.72
71424;BME280;59240;51.370;-0.486;2022-07-24T07:41:53;101407.97;;;23.41;51.91
71424;BME280;59240;51.370;-0.486;2022-07-24T07:44:20;101392.00;;;23.41;52.44
71424;BME280;59240;51.370;-0.486;2022-07-24T07:46:46;101400.56;;;23.59;51.90
71424;BME280;59240;51.370;-0.486;2022-07-24T07:49:13;101409.16;;;23.77;51.54
71424;BME280;59240;51.370;-0.486;2022-07-24T07:51:41;101410.88;;;23.91;50.96
71424;BME280;59240;51.370;-0.486;2022-07-24T07:54:09;101415.16;;;24.06;50.55
71424;BME280;59240;51.370;-0.486;2022-07-24T07:56:35;101388.31;;;23.96;50.73
71424;BME280;59240;51.370;-0.486;2022-07-24T07:59:02;101420.06;;;24.25;50.12
71424;BME280;59240;51.370;-0.486;2022-07-24T08:01:29;101415.16;;;24.32;50.03
71424;BME280;59240;51.370;-0.486;2022-07-24T08:03:56;101395.47;;;24.34;49.27
71424;BME280;59240;51.370;-0.486;2022-07-24T08:06:22;101412.84;;;24.52;49.15
71424;BME280;59240;51.370;-0.486;2022-07-24T08:08:51;101390.28;;;24.45;48.84
71424;BME280;59240;51.370;-0.486;2022-07-24T08:11:17;101401.53;;;24.62;48.74
71424;BME280;59240;51.370;-0.486;2022-07-24T08:13:44;101424.50;;;24.88;47.92
71424;BME280;59240;51.370;-0.486;2022-07-24T08:16:11;101409.16;;;24.92;47.63
71424;BME280;59240;51.370;-0.486;2022-07-24T08:18:38;101410.19;;;25.02;47.67
71424;BME280;59240;51.370;-0.486;2022-07-24T08:21:06;101423.59;;;25.26;47.43
71424;BME280;59240;51.370;-0.486;2022-07-24T08:23:32;101424.34;;;25.39;46.76
71424;BME280;59240;51.370;-0.486;2022-07-24T08:25:59;101429.03;;;25.48;46.53
71424;BME280;59240;51.370;-0.486;2022-07-24T08:28:25;101402.78;;;25.42;46.21
71424;BME280;59240;51.370;-0.486;2022-07-24T08:30:52;101401.50;;;25.48;45.96
71424;BME280;59240;51.370;-0.486;2022-07-24T08:33:19;101410.88;;;25.53;45.79
71424;BME280;59240;51.370;-0.486;2022-07-24T08:35:46;101419.19;;;25.73;45.74
71424;BME280;59240;51.370;-0.486;2022-07-24T08:38:12;101402.41;;;25.71;45.68
71424;BME280;59240;51.370;-0.486;2022-07-24T08:40:39;101391.81;;;25.82;45.24
71424;BME280;59240;51.370;-0.486;2022-07-24T08:43:08;101404.13;;;26.07;45.47
71424;BME280;59240;51.370;-0.486;2022-07-24T08:45:40;101403.53;;;26.26;43.74
71424;BME280;59240;51.370;-0.486;2022-07-24T08:48:09;101404.06;;;26.42;44.24
71424;BME280;59240;51.370;-0.486;2022-07-24T08:50:39;101404.56;;;26.58;43.51
71424;BME280;59240;51.370;-0.486;2022-07-24T08:53:06;101400.44;;;26.65;42.79
71424;BME280;59240;51.370;-0.486;2022-07-24T08:55:34;101391.19;;;26.69;42.28
71424;BME280;59240;51.370;-0.486;2022-07-24T08:58:01;101382.78;;;26.74;41.91
71424;BME280;59240;51.370;-0.486;2022-07-24T09:00:29;101376.69;;;26.83;41.29
71424;BME280;59240;51.370;-0.486;2022-07-24T09:02:56;101390.19;;;27.04;41.91
71424;BME280;59240;51.370;-0.486;2022-07-24T09:05:23;101387.97;;;27.20;41.09
71424;BME280;59240;51.370;-0.486;2022-07-24T09:08:08;101390.53;;;27.43;39.30
71424;BME280;59240;51.370;-0.486;2022-07-24T09:10:35;101369.13;;;27.43;40.68
71424;BME280;59240;51.370;-0.486;2022-07-24T09:13:16;101390.22;;;27.68;38.89
71424;BME280;59240;51.370;-0.486;2022-07-24T09:15:46;101389.44;;;27.77;38.44
71424;BME280;59240;51.370;-0.486;2022-07-24T09:18:33;101377.22;;;27.85;38.78
71424;BME280;59240;51.370;-0.486;2022-07-24T09:21:12;101352.59;;;27.91;37.95
71424;BME280;59240;51.370;-0.486;2022-07-24T09:23:40;101369.81;;;28.19;38.07
71424;BME280;59240;51.370;-0.486;2022-07-24T09:26:07;101356.47;;;28.28;37.93
71424;BME280;59240;51.370;-0.486;2022-07-24T09:28:54;101363.19;;;28.44;36.08
71424;BME280;59240;51.370;-0.486;2022-07-24T09:31:21;101351.66;;;28.53;37.47
71424;BME280;59240;51.370;-0.486;2022-07-24T09:33:49;101352.41;;;28.74;36.51
71424;BME280;59240;51.370;-0.486;2022-07-24T09:36:17;101344.53;;;28.82;36.77
71424;BME280;59240;51.370;-0.486;2022-07-24T09:38:49;101339.75;;;28.96;35.86
71424;BME280;59240;51.370;-0.486;2022-07-24T09:41:23;101354.47;;;29.21;36.05
71424;BME280;59240;51.370;-0.486;2022-07-24T09:43:58;101357.03;;;29.32;35.75
71424;BME280;59240;51.370;-0.486;2022-07-24T09:46:26;101329.63;;;29.28;36.11
71424;BME280;59240;51.370;-0.486;2022-07-24T09:48:58;101347.19;;;29.52;35.22
71424;BME280;59240;51.370;-0.486;2022-07-24T09:51:27;101334.56;;;29.62;34.89
71424;BME280;59240;51.370;-0.486;2022-07-24T09:53:56;101319.84;;;29.76;35.00
71424;BME280;59240;51.370;-0.486;2022-07-24T09:56:24;101340.41;;;30.04;35.05
71424;BME280;59240;51.370;-0.486;2022-07-24T09:58:53;101310.84;;;30.14;34.65
71424;BME280;59240;51.370;-0.486;2022-07-24T10:01:23;101335.56;;;30.55;33.94
71424;BME280;59240;51.370;-0.486;2022-07-24T10:03:52;101333.75;;;30.73;33.49
71424;BME280;59240;51.370;-0.486;2022-07-24T10:06:20;101333.63;;;30.92;33.15
71424;BME280;59240;51.370;-0.486;2022-07-24T10:08:49;101336.56;;;31.17;32.88
71424;BME280;59240;51.370;-0.486;2022-07-24T10:11:17;101338.25;;;31.36;31.55
71424;BME280;59240;51.370;-0.486;2022-07-24T10:13:45;101342.25;;;31.49;31.91
71424;BME280;59240;51.370;-0.486;2022-07-24T10:29:10;101335.31;;;32.17;30.73
71424;BME280;59240;51.370;-0.486;2022-07-24T10:31:38;101321.19;;;32.23;29.75
71424;BME280;59240;51.370;-0.486;2022-07-24T10:37:09;101321.66;;;32.52;29.90
71424;BME280;59240;51.370;-0.486;2022-07-24T10:39:54;101283.75;;;32.54;28.57
71424;BME280;59240;51.370;-0.486;2022-07-24T10:42:25;101323.22;;;32.71;29.27
71424;BME280;59240;51.370;-0.486;2022-07-24T10:47:41;101311.28;;;32.74;29.37
71424;BME280;59240;51.370;-0.486;2022-07-24T10:50:07;101292.44;;;32.90;28.54
71424;BME280;59240;51.370;-0.486;2022-07-24T10:52:35;101316.41;;;33.01;28.08
71424;BME280;59240;51.370;-0.486;2022-07-24T10:55:31;101308.66;;;32.98;26.69
71424;BME280;59240;51.370;-0.486;2022-07-24T10:58:14;101310.69;;;32.96;27.46
71424;BME280;59240;51.370;-0.486;2022-07-24T11:00:50;101311.69;;;33.03;27.57
71424;BME280;59240;51.370;-0.486;2022-07-24T11:03:22;101265.78;;;32.87;26.89
71424;BME280;59240;51.370;-0.486;2022-07-24T11:08:36;101301.22;;;33.33;27.24
71424;BME280;59240;51.370;-0.486;2022-07-24T11:11:08;101270.50;;;33.34;27.71
71424;BME280;59240;51.370;-0.486;2022-07-24T11:21:32;101287.78;;;34.13;26.26
71424;BME280;59240;51.370;-0.486;2022-07-24T11:26:52;101284.19;;;34.20;25.25
71424;BME280;59240;51.370;-0.486;2022-07-24T11:29:26;101284.53;;;34.17;26.00
71424;BME280;59240;51.370;-0.486;2022-07-24T11:31:56;101265.94;;;34.14;26.16
71424;BME280;59240;51.370;-0.486;2022-07-24T11:34:25;101273.03;;;34.15;25.71
71424;BME280;59240;51.370;-0.486;2022-07-24T11:36:53;101267.16;;;34.04;26.86
71424;BME280;59240;51.370;-0.486;2022-07-24T11:39:26;101276.38;;;34.25;25.89
71424;BME280;59240;51.370;-0.486;2022-07-24T11:42:05;101262.41;;;34.14;25.64
71424;BME280;59240;51.370;-0.486;2022-07-24T11:44:38;101263.16;;;33.83;26.17
71424;BME280;59240;51.370;-0.486;2022-07-24T11:52:06;101260.13;;;33.86;27.53
71424;BME280;59240;51.370;-0.486;2022-07-24T11:54:33;101257.84;;;34.14;27.47
71424;BME280;59240;51.370;-0.486;2022-07-24T11:57:00;101257.13;;;34.20;26.95
71424;BME280;59240;51.370;-0.486;2022-07-24T11:59:28;101259.84;;;34.20;27.09
71424;BME280;59240;51.370;-0.486;2022-07-24T12:02:06;101238.72;;;34.16;26.94
71424;BME280;59240;51.370;-0.486;2022-07-24T12:04:34;101235.81;;;34.25;26.97
71424;BME280;59240;51.370;-0.486;2022-07-24T12:07:05;101237.97;;;34.30;26.66
71424;BME280;59240;51.370;-0.486;2022-07-24T12:09:32;101233.47;;;34.22;27.34
71424;BME280;59240;51.370;-0.486;2022-07-24T12:11:59;101234.44;;;34.29;27.12
71424;BME280;59240;51.370;-0.486;2022-07-24T12:14:25;101239.13;;;34.36;26.35
71424;BME280;59240;51.370;-0.486;2022-07-24T12:16:54;101228.06;;;34.22;26.03
71424;BME280;59240;51.370;-0.486;2022-07-24T12:19:23;101223.00;;;34.19;26.39
71424;BME280;59240;51.370;-0.486;2022-07-24T12:21:53;101198.22;;;34.08;26.20
71424;BME280;59240;51.370;-0.486;2022-07-24T12:24:20;101211.47;;;34.25;26.41
71424;BME280;59240;51.370;-0.486;2022-07-24T12:26:58;101209.91;;;34.31;26.09
71424;BME280;59240;51.370;-0.486;2022-07-24T12:29:26;101190.56;;;34.19;26.03
71424;BME280;59240;51.370;-0.486;2022-07-24T12:32:16;101200.41;;;34.12;25.21
71424;BME280;59240;51.370;-0.486;2022-07-24T12:34:47;101188.63;;;33.89;25.69
71424;BME280;59240;51.370;-0.486;2022-07-24T12:37:37;101214.34;;;33.85;25.70
71424;BME280;59240;51.370;-0.486;2022-07-24T12:40:04;101178.97;;;33.55;26.25
71424;BME280;59240;51.370;-0.486;2022-07-24T12:42:31;101203.66;;;33.52;26.32
71424;BME280;59240;51.370;-0.486;2022-07-24T12:45:08;101195.25;;;33.39;26.35
71424;BME280;59240;51.370;-0.486;2022-07-24T12:48:09;101194.91;;;33.17;26.65
71424;BME280;59240;51.370;-0.486;2022-07-24T12:50:37;101189.19;;;33.12;27.05
71424;BME280;59240;51.370;-0.486;2022-07-24T12:53:22;101182.25;;;33.18;27.05
71424;BME280;59240;51.370;-0.486;2022-07-24T12:58:30;101151.75;;;32.93;26.11
71424;BME280;59240;51.370;-0.486;2022-07-24T13:01:13;101175.03;;;33.02;26.99
71424;BME280;59240;51.370;-0.486;2022-07-24T13:06:38;101176.34;;;33.23;26.35
71424;BME280;59240;51.370;-0.486;2022-07-24T13:09:06;101173.44;;;33.32;26.58
71424;BME280;59240;51.370;-0.486;2022-07-24T13:11:36;101182.06;;;33.36;27.70
71424;BME280;59240;51.370;-0.486;2022-07-24T13:14:04;101156.44;;;33.24;27.51
71424;BME280;59240;51.370;-0.486;2022-07-24T13:16:37;101170.44;;;33.19;26.98
71424;BME280;59240;51.370;-0.486;2022-07-24T13:19:06;101171.31;;;32.87;27.09
71424;BME280;59240;51.370;-0.486;2022-07-24T13:21:33;101151.41;;;32.55;27.92
71424;BME280;59240;51.370;-0.486;2022-07-24T13:24:00;101135.16;;;32.23;28.30
71424;BME280;59240;51.370;-0.486;2022-07-24T13:26:27;101163.44;;;32.10;28.99
71424;BME280;59240;51.370;-0.486;2022-07-24T13:28:54;101136.81;;;31.57;29.04
71424;BME280;59240;51.370;-0.486;2022-07-24T13:31:20;101148.44;;;31.66;28.78